Impacts METAR Board INFO
IDs:

KCVG - Cincinnati Intl, KY, US

Updated at: 2002 UTC 17 Jan 2018
Potential Impact None Slight Moderate High
Time17/08Z 17/09Z 17/10Z 17/11Z 17/12Z 17/13Z 17/14Z 17/15Z 17/16Z 17/17Z 17/18Z 17/19Z 17/20Z
VIS5 4 6 4 6 5 1 1 2 3 6 10 10
CIG11 14 15 12 12 10 12 16 16 15 13 -- --
CoverOVCOVCOVCOVCOVCOVCOVCOVCOVCOVCBKNSCTSCT
FltCatMVFRMVFRMVFRMVFRMVFRMVFRIFRIFRIFRMVFRMVFRVFRVFR
WX-SN BR-SN BR-SN BR-SN BR-SN BR-SN BR-SN BR-SN BR-SN-SN-SN----
WDir240220260290270280270260290270260230230
WSpd4 3 5 6 5 5 6 4 4 5 6 6 6
WGst-- -- -- -- -- -- -- -- -- -- -- -- --
Raw hourly METARs
KCVG 170752Z 24004KT 5SM -SN BR OVC011 M14/M16 A3053 RMK AO2 SLP354 P0000 T11391156
KCVG 170852Z 22003KT 4SM -SN BR OVC014 M14/M16 A3053 RMK AO2 SLP355 CIG 011V016 P0000 60000 T11391156 55001
KCVG 170952Z 26005KT 6SM -SN BR OVC015 M13/M15 A3052 RMK AO2 SLP353 CIG 013V017 P0000 T11331150
KCVG 171052Z 29006KT 4SM -SN BR OVC012 M13/M15 A3053 RMK AO2 SLP356 P0000 T11331150
KCVG 171152Z 27005KT 6SM -SN BR OVC012 M13/M15 A3053 RMK AO2 SLP357 4/003 931000 P0000 60000 T11331150 11133 21139 53002
KCVG 171252Z 28005KT 5SM -SN BR OVC010 M13/M15 A3053 RMK AO2 SLP358 PCPN VRY LGT P0000 T11331150
KCVG 171357Z 27006KT 1SM R18C/5000V6000FT -SN BR OVC012 M13/M14 A3054 RMK AO2 P0000 T11331144
KCVG 171452Z 26004KT 1SM R18C/5000VP6000FT -SN BR BKN016 OVC022 M12/M14 A3055 RMK AO2 SFC VIS 1 1/4 SLP363 BKN V OVC P0000 60000 T11221139 53006
KCVG 171552Z 29004KT 2SM -SN OVC016 M12/M14 A3056 RMK AO2 SFC VIS 2 1/2 SLP367 P0000 T11171144
KCVG 171654Z 27005KT 3SM -SN OVC015 M11/M13 A3056 RMK AO2 SFC VIS 4 P0000 T11061133
KCVG 171759Z 26006KT 6SM -SN BKN013 M10/M13 A3053 RMK AO2 P0000 T11001133
KCVG 171852Z 23006KT 10SM FEW013 SCT018 M09/M13 A3052 RMK AO2 SNE20 SLP350 P0000 T10891128
KCVG 171952Z 23006KT 10SM FEW034 SCT042 M08/M12 A3050 RMK AO2 SLP345 T10831122